Time;durP1;ratioP1;P1;durP2;ratioP2;P2;SDS_P1;SDS_P2;PMS_P1;PMS_P2;Temp;Humidity;BMP_temperature;BMP_pressure;BME280_temperature;BME280_humidity;BME280_pressure;Samples;Min_cycle;Max_cycle;Signal;HPM_P1;HPM_P2
2021/12/25 00:00:19;;;;;;;6.95;0.77;;;-0.60;99.90;;;;;;5026591;28;20179;-75
2021/12/25 00:02:45;;;;;;;8.23;1.27;;;-1.10;99.90;;;;;;5027165;28;20040;-75
2021/12/25 00:05:12;;;;;;;5.68;1.23;;;-1.20;99.90;;;;;;5041839;28;20617;-75
2021/12/25 00:07:38;;;;;;;8.38;0.88;;;-1.20;99.90;;;;;;5073033;28;20080;-75
2021/12/25 00:10:05;;;;;;;5.25;0.85;;;-1.20;99.90;;;;;;5037466;28;20383;-76
2021/12/25 00:12:31;;;;;;;3.55;1.02;;;-1.30;99.90;;;;;;5019690;28;20056;-75
2021/12/25 00:14:57;;;;;;;2.08;0.88;;;-1.30;99.90;;;;;;5026612;28;20044;-75
2021/12/25 00:17:23;;;;;;;6.95;1.10;;;-1.40;99.90;;;;;;5038140;28;20725;-75
2021/12/25 00:19:48;;;;;;;8.40;1.00;;;-1.40;99.90;;;;;;5025419;28;20053;-76
2021/12/25 00:22:15;;;;;;;6.15;0.63;;;-1.30;99.90;;;;;;5037337;28;20071;-75
2021/12/25 00:24:44;;;;;;;1.60;0.70;;;-1.40;99.90;;;;;;5062107;28;20450;-75
2021/12/25 00:30:08;;;;;;;7.10;0.85;;;-1.50;99.90;;;;;;5068777;28;20530;-75
2021/12/25 00:35:06;;;;;;;4.57;0.70;;;-1.60;99.90;;;;;;5029372;28;20041;-75
2021/12/25 00:37:31;;;;;;;4.55;1.88;;;-1.60;99.90;;;;;;5030573;28;20071;-75
2021/12/25 00:39:57;;;;;;;6.30;1.00;;;-1.60;99.90;;;;;;5024421;28;20049;-76
2021/12/25 00:42:23;;;;;;;5.10;0.80;;;-1.60;99.90;;;;;;5023591;28;20053;-76
2021/12/25 00:44:49;;;;;;;4.68;0.90;;;-1.70;99.90;;;;;;5065559;28;20040;-76
2021/12/25 00:47:15;;;;;;;4.03;0.98;;;-1.70;99.90;;;;;;5037925;28;20067;-75
2021/12/25 00:49:41;;;;;;;3.45;0.95;;;-1.70;99.90;;;;;;5065778;28;20037;-75
2021/12/25 00:52:06;;;;;;;6.47;0.60;;;-1.70;99.90;;;;;;5029040;28;20616;-76
2021/12/25 00:54:32;;;;;;;4.57;1.13;;;-1.70;99.90;;;;;;5048877;28;20575;-76
2021/12/25 00:56:58;;;;;;;5.53;1.00;;;-1.70;99.90;;;;;;5060550;28;20060;-75
2021/12/25 00:59:23;;;;;;;3.53;0.80;;;-1.70;99.90;;;;;;5042159;28;20056;-75
2021/12/25 01:01:49;;;;;;;4.80;1.00;;;-1.80;99.90;;;;;;5033868;28;20126;-76
2021/12/25 01:04:15;;;;;;;6.38;0.95;;;-1.90;99.90;;;;;;5047786;28;20052;-75
2021/12/25 01:06:40;;;;;;;5.20;0.77;;;-1.90;99.90;;;;;;5061790;28;20467;-76
2021/12/25 01:09:07;;;;;;;2.85;0.55;;;-1.90;99.90;;;;;;5043962;28;20045;-76
2021/12/25 01:11:35;;;;;;;2.38;0.60;;;-1.90;99.90;;;;;;5063931;28;20060;-76
2021/12/25 01:14:11;;;;;;;1.50;0.50;;;-1.90;99.90;;;;;;5057485;28;20037;-77
2021/12/25 01:27:26;;;;;;;3.85;0.50;;;-2.20;99.90;;;;;;5049748;28;20486;-75
2021/12/25 01:35:47;;;;;;;3.53;0.77;;;-2.30;99.90;;;;;;5056830;28;20513;-75
2021/12/25 01:40:59;;;;;;;4.50;0.60;;;-2.30;99.90;;;;;;5045582;28;20064;-76
2021/12/25 01:48:53;;;;;;;9.77;0.88;;;-2.30;99.90;;;;;;5049596;28;20357;-76
2021/12/25 01:51:19;;;;;;;2.28;0.40;;;-2.40;99.90;;;;;;5059551;28;20084;-75
2021/12/25 01:53:45;;;;;;;5.82;0.68;;;-2.40;99.90;;;;;;5033377;28;20073;-75
2021/12/25 01:56:11;;;;;;;1.52;0.52;;;-2.40;99.90;;;;;;5039746;28;20088;-75
2021/12/25 01:58:37;;;;;;;2.03;0.50;;;-2.50;99.90;;;;;;5022920;28;20048;-76
2021/12/25 02:01:06;;;;;;;2.33;0.63;;;-2.40;99.90;;;;;;5024470;28;20056;-75
2021/12/25 02:03:32;;;;;;;2.42;0.70;;;-2.50;99.90;;;;;;5045592;28;20524;-75
2021/12/25 02:05:58;;;;;;;2.42;0.73;;;-2.60;99.90;;;;;;5046407;28;20135;-75
2021/12/25 02:08:25;;;;;;;3.05;0.50;;;-2.60;99.90;;;;;;5061278;28;20060;-76
2021/12/25 02:10:51;;;;;;;1.20;0.30;;;-2.60;99.90;;;;;;5046658;28;20048;-75
2021/12/25 02:13:17;;;;;;;2.05;0.52;;;-2.70;99.90;;;;;;5041444;28;20046;-75
2021/12/25 02:15:46;;;;;;;2.00;0.50;;;-2.70;99.90;;;;;;5062110;28;20563;-75
2021/12/25 02:18:21;;;;;;;1.65;0.30;;;-2.70;99.90;;;;;;5038082;28;20041;-75
2021/12/25 02:21:02;;;;;;;5.03;0.68;;;-2.70;99.90;;;;;;5033890;28;20124;-75
2021/12/25 02:23:28;;;;;;;1.58;0.40;;;-2.70;99.90;;;;;;5028523;28;20021;-75
2021/12/25 02:25:56;;;;;;;1.63;0.40;;;-2.80;99.90;;;;;;5044887;28;20805;-75
2021/12/25 02:28:23;;;;;;;1.95;0.45;;;-2.70;99.90;;;;;;5041412;28;20055;-75
2021/12/25 02:30:54;;;;;;;6.57;0.60;;;-2.80;99.90;;;;;;5037416;28;20411;-76
2021/12/25 02:33:20;;;;;;;1.65;0.45;;;-2.80;99.90;;;;;;5080739;28;20044;-75
2021/12/25 02:35:46;;;;;;;2.08;0.43;;;-2.80;99.90;;;;;;5025763;28;20053;-75
2021/12/25 02:38:13;;;;;;;1.15;0.20;;;-2.90;99.90;;;;;;5038975;28;20052;-76
2021/12/25 02:40:39;;;;;;;0.55;0.30;;;-1.90;99.90;;;;;;5024227;28;20079;-75
2021/12/25 02:43:05;;;;;;;0.75;0.17;;;-2.90;99.90;;;;;;5028984;28;20068;-75
2021/12/25 02:45:31;;;;;;;0.80;0.40;;;-2.90;99.90;;;;;;5064946;28;20271;-76
2021/12/25 02:47:57;;;;;;;1.02;0.30;;;-2.90;99.90;;;;;;5045586;28;20044;-75
2021/12/25 02:50:28;;;;;;;1.80;0.38;;;-2.90;99.90;;;;;;5066478;28;20045;-75
2021/12/25 02:52:55;;;;;;;0.70;0.38;;;-2.90;99.90;;;;;;5053784;28;20053;-75
2021/12/25 02:55:21;;;;;;;3.15;0.47;;;-3.00;99.90;;;;;;5080097;28;20080;-75
2021/12/25 02:57:51;;;;;;;1.25;0.30;;;-3.00;99.90;;;;;;5049063;28;20124;-76
2021/12/25 03:00:40;;;;;;;0.95;0.47;;;-3.00;99.90;;;;;;5076110;28;20069;-76
2021/12/25 03:03:07;;;;;;;3.20;0.35;;;-3.00;99.90;;;;;;5028913;28;20075;-75
2021/12/25 03:05:32;;;;;;;1.23;0.30;;;-3.10;99.90;;;;;;4995678;28;20149;-76
2021/12/25 03:07:58;;;;;;;2.33;0.50;;;-3.10;99.90;;;;;;5010392;28;20191;-76
2021/12/25 03:10:24;;;;;;;1.02;0.43;;;-3.10;99.90;;;;;;5011885;28;20049;-74
2021/12/25 03:13:04;;;;;;;1.13;0.40;;;-3.10;99.90;;;;;;5011258;28;20905;-76
2021/12/25 03:15:41;;;;;;;0.98;0.45;;;-3.10;99.90;;;;;;4991013;28;20045;-75
2021/12/25 03:18:07;;;;;;;3.30;0.43;;;-3.10;99.90;;;;;;4995610;28;20056;-75
2021/12/25 03:20:33;;;;;;;0.28;0.20;;;-3.10;99.90;;;;;;5010113;28;20041;-75
2021/12/25 03:22:59;;;;;;;1.63;0.30;;;-3.20;99.90;;;;;;5010043;28;20056;-75
2021/12/25 03:25:25;;;;;;;2.80;0.50;;;-3.20;99.90;;;;;;5009046;28;20054;-75
2021/12/25 03:27:51;;;;;;;2.38;0.30;;;-3.20;99.90;;;;;;5008208;28;20719;-75
2021/12/25 03:30:20;;;;;;;3.90;0.50;;;-2.90;99.90;;;;;;4994233;28;20404;-75
2021/12/25 03:32:47;;;;;;;3.20;0.40;;;-3.40;99.90;;;;;;4995528;28;20132;-75
2021/12/25 03:35:13;;;;;;;1.00;0.20;;;-3.10;99.90;;;;;;5010239;28;20500;-74
2021/12/25 03:37:39;;;;;;;2.45;0.40;;;-3.40;99.90;;;;;;5026866;28;20052;-75
2021/12/25 03:40:05;;;;;;;0.85;0.30;;;-3.40;99.90;;;;;;5018353;28;20041;-74
2021/12/25 03:42:31;;;;;;;1.25;0.40;;;-3.40;99.90;;;;;;5043134;28;20048;-75
2021/12/25 03:44:57;;;;;;;3.83;0.70;;;-3.40;99.90;;;;;;5041431;28;20110;-75
2021/12/25 03:47:31;;;;;;;1.27;0.35;;;-3.40;99.90;;;;;;5052159;28;20064;-75
2021/12/25 03:58:21;;;;;;;2.67;0.30;;;-3.40;99.90;;;;;;5070703;28;20048;-75
2021/12/25 04:00:49;;;;;;;4.03;0.40;;;-3.50;99.90;;;;;;5034995;28;20098;-75
2021/12/25 04:03:24;;;;;;;1.35;0.40;;;-3.50;99.90;;;;;;5056642;28;20044;-75
2021/12/25 04:05:50;;;;;;;2.75;0.50;;;-3.50;99.90;;;;;;5040118;28;20052;-75
2021/12/25 04:08:19;;;;;;;1.13;0.28;;;-3.60;99.90;;;;;;5054767;28;20510;-75
2021/12/25 04:10:49;;;;;;;1.17;0.40;;;-3.50;99.90;;;;;;5046849;28;20097;-75
2021/12/25 04:13:16;;;;;;;2.35;0.47;;;-3.50;99.90;;;;;;5044798;28;20036;-75
2021/12/25 04:15:43;;;;;;;2.92;0.45;;;-3.50;99.90;;;;;;5073996;28;20388;-75
2021/12/25 04:18:09;;;;;;;1.25;0.25;;;-3.60;99.90;;;;;;5041769;28;20396;-75
2021/12/25 04:20:36;;;;;;;1.63;0.60;;;-3.60;99.90;;;;;;5034770;28;20489;-75
2021/12/25 04:23:07;;;;;;;2.33;0.43;;;-3.60;99.90;;;;;;5035740;28;20071;-75
2021/12/25 04:25:34;;;;;;;0.20;0.20;;;-3.70;99.90;;;;;;5039268;28;20049;-75
2021/12/25 04:28:12;;;;;;;1.08;0.13;;;-3.70;99.90;;;;;;5034768;28;20045;-76
2021/12/25 05:05:45;;;;;;;3.08;0.47;;;-4.00;99.90;;;;;;5045389;28;20052;-75
2021/12/25 05:08:11;;;;;;;1.30;0.50;;;-4.00;99.90;;;;;;5029468;28;20045;-75
2021/12/25 05:10:36;;;;;;;1.45;0.50;;;-4.00;99.90;;;;;;5026249;28;20053;-75
2021/12/25 05:13:02;;;;;;;1.13;0.30;;;-3.90;99.90;;;;;;5015704;28;20045;-75
2021/12/25 05:15:28;;;;;;;2.70;0.60;;;-3.90;99.90;;;;;;5039719;28;20045;-75
2021/12/25 05:17:53;;;;;;;1.13;0.50;;;-3.90;99.90;;;;;;5029953;28;20412;-75
2021/12/25 05:20:19;;;;;;;2.58;0.40;;;-3.90;99.90;;;;;;4996159;28;20041;-75
2021/12/25 05:22:45;;;;;;;4.13;0.40;;;-3.90;99.90;;;;;;5009101;28;20052;-75
2021/12/25 05:25:11;;;;;;;1.08;0.40;;;-4.00;99.90;;;;;;5045746;28;20049;-75
2021/12/25 05:27:37;;;;;;;3.65;0.40;;;-4.00;99.90;;;;;;5034794;28;20086;-75
2021/12/25 05:30:04;;;;;;;0.65;0.30;;;-4.00;99.90;;;;;;5002770;28;20148;-75
2021/12/25 05:32:30;;;;;;;5.68;0.55;;;-3.90;99.90;;;;;;5014141;28;20057;-75
2021/12/25 05:34:56;;;;;;;2.08;0.30;;;-4.00;99.90;;;;;;5000470;28;20052;-75
2021/12/25 05:37:21;;;;;;;1.77;0.32;;;-4.00;99.90;;;;;;5003753;28;20057;-75
2021/12/25 05:39:50;;;;;;;0.35;0.30;;;-4.00;99.90;;;;;;5044334;28;20041;-76
2021/12/25 05:42:22;;;;;;;2.63;0.25;;;-3.90;99.90;;;;;;5032996;28;20053;-75
2021/12/25 05:44:49;;;;;;;5.63;0.50;;;-4.00;99.90;;;;;;5041155;28;20053;-75
2021/12/25 05:47:15;;;;;;;1.25;0.30;;;-3.30;99.90;;;;;;5038477;28;20049;-75
2021/12/25 05:49:40;;;;;;;1.52;0.50;;;-4.00;99.90;;;;;;5073817;28;20055;-75
2021/12/25 05:52:06;;;;;;;5.65;0.40;;;-4.00;99.90;;;;;;5041099;28;20124;-75
2021/12/25 05:54:32;;;;;;;0.50;0.40;;;-4.10;99.90;;;;;;5027051;28;20840;-75
2021/12/25 05:56:58;;;;;;;2.60;0.40;;;-4.00;99.90;;;;;;5039129;28;20036;-75
2021/12/25 05:59:24;;;;;;;0.32;0.20;;;-4.00;99.90;;;;;;5057213;28;20414;-75
2021/12/25 06:01:49;;;;;;;1.27;0.57;;;-4.00;99.90;;;;;;5070586;28;20103;-75
2021/12/25 06:04:15;;;;;;;2.90;0.40;;;-4.00;99.90;;;;;;5077872;28;20070;-75
2021/12/25 06:06:41;;;;;;;1.48;0.40;;;-3.90;99.90;;;;;;5032505;28;20445;-76
2021/12/25 06:09:09;;;;;;;1.50;0.30;;;-3.90;99.90;;;;;;5045541;28;20048;-75
2021/12/25 06:11:36;;;;;;;1.45;0.40;;;-3.90;99.90;;;;;;5029657;28;20053;-75
2021/12/25 06:14:17;;;;;;;4.55;0.60;;;-3.90;99.90;;;;;;5030282;28;20076;-75
2021/12/25 06:16:44;;;;;;;0.88;0.43;;;-4.00;99.90;;;;;;5034357;28;20052;-75
2021/12/25 06:19:10;;;;;;;2.67;0.38;;;-4.00;99.90;;;;;;5045825;28;20052;-75
2021/12/25 06:21:37;;;;;;;4.47;0.60;;;-4.00;99.90;;;;;;5071890;28;20045;-76
2021/12/25 06:24:05;;;;;;;3.63;0.82;;;-4.00;99.90;;;;;;5058324;28;20495;-75
2021/12/25 06:26:32;;;;;;;2.33;0.47;;;-4.00;99.90;;;;;;5041411;28;20044;-75
2021/12/25 06:28:57;;;;;;;2.10;0.60;;;-4.00;99.90;;;;;;5073222;28;20068;-75
2021/12/25 06:31:23;;;;;;;3.13;0.50;;;-4.10;99.90;;;;;;5046478;28;20392;-76
2021/12/25 06:33:49;;;;;;;3.40;0.60;;;-4.00;99.90;;;;;;5015906;28;20135;-75
2021/12/25 06:36:15;;;;;;;3.35;0.50;;;-4.10;99.90;;;;;;5048370;28;20045;-75
2021/12/25 06:38:41;;;;;;;5.65;0.70;;;-4.10;99.90;;;;;;5066330;28;20040;-75
2021/12/25 06:41:08;;;;;;;1.58;0.40;;;-4.00;99.90;;;;;;5050057;28;20044;-75
2021/12/25 06:43:34;;;;;;;4.47;0.73;;;-4.00;99.90;;;;;;5080107;28;20123;-75
2021/12/25 06:46:00;;;;;;;2.13;0.63;;;-4.00;99.90;;;;;;5065562;28;20507;-75
2021/12/25 06:48:26;;;;;;;1.45;0.40;;;-4.10;99.90;;;;;;5063399;28;20127;-75
2021/12/25 06:50:53;;;;;;;1.17;0.55;;;-4.00;99.90;;;;;;5059202;28;20102;-75
2021/12/25 06:53:19;;;;;;;1.83;0.55;;;-4.00;99.90;;;;;;5050760;28;20056;-75
2021/12/25 06:55:44;;;;;;;5.03;0.52;;;-4.00;99.90;;;;;;5080010;28;20044;-75
2021/12/25 06:58:10;;;;;;;4.38;0.45;;;-4.10;99.90;;;;;;5079963;28;20029;-75
2021/12/25 07:00:36;;;;;;;6.95;0.60;;;-4.00;99.90;;;;;;5049321;28;20049;-75
2021/12/25 07:03:02;;;;;;;2.95;0.68;;;-4.10;99.90;;;;;;5049437;28;20064;-75
2021/12/25 07:05:27;;;;;;;4.78;0.60;;;-4.10;99.90;;;;;;5043879;28;20054;-74
2021/12/25 07:07:53;;;;;;;0.57;0.38;;;-4.00;99.90;;;;;;5069761;28;20051;-75
2021/12/25 07:10:20;;;;;;;1.65;0.40;;;-4.10;99.90;;;;;;5046119;28;20036;-75
2021/12/25 07:12:48;;;;;;;0.90;0.50;;;-4.10;99.90;;;;;;5034551;28;20044;-75
2021/12/25 07:15:14;;;;;;;3.13;0.60;;;-4.10;99.90;;;;;;5041505;28;20052;-75
2021/12/25 07:17:40;;;;;;;2.72;0.50;;;-4.10;99.90;;;;;;5038098;28;20846;-75
2021/12/25 07:20:06;;;;;;;1.55;0.35;;;-4.20;99.90;;;;;;5031962;28;20037;-75
2021/12/25 07:22:32;;;;;;;1.17;0.47;;;-4.30;99.90;;;;;;5038559;28;20460;-75
2021/12/25 07:24:58;;;;;;;1.13;0.52;;;-4.30;99.90;;;;;;5065617;28;20181;-75
2021/12/25 07:27:24;;;;;;;0.88;0.50;;;-3.90;99.90;;;;;;5038565;28;20131;-75
2021/12/25 07:29:49;;;;;;;0.20;0.20;;;-4.30;99.90;;;;;;5041497;28;20053;-76
2021/12/25 07:32:15;;;;;;;2.70;0.50;;;-4.30;99.90;;;;;;5081049;28;20098;-76
2021/12/25 07:34:41;;;;;;;7.22;0.43;;;-4.20;99.90;;;;;;5028460;28;20403;-75
2021/12/25 07:37:07;;;;;;;5.90;0.65;;;-4.20;99.90;;;;;;5031742;28;20053;-75
2021/12/25 07:39:33;;;;;;;1.45;0.68;;;-4.30;99.90;;;;;;5030199;28;20052;-76
2021/12/25 07:41:58;;;;;;;4.35;0.50;;;-4.30;99.90;;;;;;5061788;28;20049;-76
2021/12/25 07:44:24;;;;;;;1.75;0.60;;;-4.30;99.90;;;;;;5059323;28;20151;-76
2021/12/25 07:46:51;;;;;;;2.67;0.80;;;-4.40;99.90;;;;;;5042090;28;20044;-76
2021/12/25 07:49:19;;;;;;;3.15;0.60;;;-4.40;99.90;;;;;;5026896;28;20532;-76
2021/12/25 07:51:46;;;;;;;2.70;0.60;;;-4.40;99.90;;;;;;5016724;28;20112;-76
2021/12/25 07:54:12;;;;;;;1.73;0.22;;;-4.50;99.90;;;;;;5031636;28;20037;-75
2021/12/25 07:56:38;;;;;;;1.45;0.65;;;-4.30;99.90;;;;;;5005720;28;20049;-75
2021/12/25 07:59:05;;;;;;;7.20;0.73;;;-4.30;99.90;;;;;;5035101;28;20140;-75
2021/12/25 08:01:34;;;;;;;3.17;0.70;;;-4.40;99.90;;;;;;5029745;28;20860;-75
2021/12/25 08:04:00;;;;;;;2.45;0.70;;;-4.40;99.90;;;;;;5037895;28;20049;-75
2021/12/25 08:06:26;;;;;;;8.05;0.57;;;-4.40;99.90;;;;;;5045300;28;20041;-74
2021/12/25 08:08:55;;;;;;;3.20;0.63;;;-4.30;99.90;;;;;;5084797;28;20484;-74
2021/12/25 08:11:21;;;;;;;1.40;0.65;;;-4.20;99.90;;;;;;5041360;28;20401;-75
2021/12/25 08:13:47;;;;;;;2.50;0.63;;;-4.40;99.90;;;;;;5043138;28;20036;-74
2021/12/25 08:16:12;;;;;;;4.95;0.50;;;-4.30;99.90;;;;;;5068267;28;20396;-74
2021/12/25 08:18:38;;;;;;;5.50;0.60;;;-4.40;99.90;;;;;;5057400;28;20410;-73
2021/12/25 08:21:04;;;;;;;1.77;0.60;;;-4.40;99.90;;;;;;5071025;28;20064;-74
2021/12/25 08:23:32;;;;;;;5.20;1.00;;;-4.40;99.90;;;;;;5039951;28;20055;-74
2021/12/25 08:25:59;;;;;;;2.00;0.95;;;-4.50;99.90;;;;;;5033247;28;20445;-74
2021/12/25 08:28:24;;;;;;;1.75;0.52;;;-4.50;99.90;;;;;;5029654;28;20049;-74
2021/12/25 08:30:50;;;;;;;1.13;0.57;;;-4.40;99.90;;;;;;5070362;28;20095;-75
2021/12/25 08:33:16;;;;;;;1.38;0.70;;;-4.50;99.90;;;;;;5053319;28;20554;-75
2021/12/25 08:35:42;;;;;;;3.03;0.85;;;-4.40;99.90;;;;;;5057787;28;20076;-75
2021/12/25 08:38:11;;;;;;;1.95;0.88;;;-4.40;99.90;;;;;;5032309;28;20113;-75
2021/12/25 08:40:38;;;;;;;4.43;0.93;;;-4.40;99.90;;;;;;5054932;28;20040;-75
2021/12/25 08:43:05;;;;;;;3.60;0.80;;;-4.20;99.90;;;;;;5040401;28;20056;-76
2021/12/25 08:48:03;;;;;;;5.32;0.80;;;-4.30;99.90;;;;;;5068521;28;20044;-75
2021/12/25 08:50:29;;;;;;;0.82;0.55;;;-3.90;99.90;;;;;;5019958;28;20046;-75
2021/12/25 08:52:55;;;;;;;4.05;1.30;;;-4.10;99.90;;;;;;5026474;28;20041;-75
2021/12/25 08:55:21;;;;;;;4.88;0.95;;;-4.20;99.90;;;;;;5028088;28;20657;-77
2021/12/25 08:57:47;;;;;;;3.17;0.80;;;-4.20;99.90;;;;;;5057015;28;20067;-76
2021/12/25 09:00:13;;;;;;;2.05;0.52;;;-4.20;99.90;;;;;;5042498;28;20463;-77
2021/12/25 09:02:39;;;;;;;4.40;0.93;;;-4.20;99.90;;;;;;5030352;28;20049;-78
2021/12/25 09:05:05;;;;;;;2.97;0.55;;;-4.20;99.90;;;;;;5049682;28;20041;-79
2021/12/25 09:07:31;;;;;;;2.55;0.80;;;-4.20;99.90;;;;;;5045185;28;20053;-78
2021/12/25 09:09:59;;;;;;;2.05;0.73;;;-4.20;99.90;;;;;;5017844;28;20045;-81
2021/12/25 09:12:33;;;;;;;5.32;0.52;;;-4.20;99.90;;;;;;5049345;28;21588;-81
2021/12/25 09:14:59;;;;;;;4.28;0.60;;;-4.20;99.90;;;;;;5048066;28;20446;-80
2021/12/25 09:17:24;;;;;;;1.83;0.70;;;-4.10;99.90;;;;;;5007055;28;20088;-77
2021/12/25 09:19:50;;;;;;;4.60;0.80;;;-4.00;99.90;;;;;;5011606;28;20064;-77
2021/12/25 09:22:16;;;;;;;2.90;0.75;;;-3.70;99.90;;;;;;5009260;28;20146;-75
2021/12/25 09:24:41;;;;;;;3.72;0.80;;;-3.70;99.90;;;;;;5015100;28;20106;-75
2021/12/25 09:27:08;;;;;;;1.88;0.50;;;-3.80;99.90;;;;;;4994545;28;20053;-75
2021/12/25 09:29:34;;;;;;;2.90;0.70;;;-3.80;99.90;;;;;;5011660;28;20152;-74
2021/12/25 09:32:00;;;;;;;1.27;0.70;;;-3.80;99.90;;;;;;5009968;28;20571;-75
2021/12/25 09:34:26;;;;;;;1.10;0.50;;;-3.80;99.90;;;;;;5003955;28;20049;-77
2021/12/25 09:36:52;;;;;;;5.53;1.00;;;-3.70;99.90;;;;;;5043928;28;20034;-76
2021/12/25 09:39:20;;;;;;;1.23;0.50;;;-3.80;99.90;;;;;;5041266;28;20481;-75
2021/12/25 09:41:46;;;;;;;5.63;1.00;;;-3.70;99.90;;;;;;4996178;28;20088;-77
2021/12/25 09:44:12;;;;;;;1.52;0.50;;;-3.70;99.90;;;;;;4999405;28;20476;-76
2021/12/25 09:46:37;;;;;;;3.55;0.68;;;-3.70;99.90;;;;;;5017736;28;20042;-77
2021/12/25 09:49:03;;;;;;;3.03;0.70;;;-3.60;99.90;;;;;;4998035;28;20516;-76
2021/12/25 09:51:29;;;;;;;1.90;0.75;;;-3.60;99.90;;;;;;5008467;28;20047;-74
2021/12/25 09:54:02;;;;;;;3.33;0.80;;;-3.50;99.90;;;;;;5032312;28;20060;-74
2021/12/25 09:56:31;;;;;;;2.67;0.80;;;-3.50;99.90;;;;;;4995768;28;20043;-75
2021/12/25 09:58:56;;;;;;;2.30;0.75;;;-3.50;99.90;;;;;;4999812;28;20046;-74
2021/12/25 10:01:45;;;;;;;3.03;0.88;;;-3.50;99.90;;;;;;5000595;28;20042;-76
2021/12/25 10:04:28;;;;;;;3.60;0.80;;;-3.50;99.90;;;;;;5031078;28;20050;-77
2021/12/25 10:06:54;;;;;;;2.78;0.88;;;-3.50;99.90;;;;;;5033641;28;20516;-76
2021/12/25 10:09:24;;;;;;;2.25;0.60;;;-3.40;99.90;;;;;;5035335;28;20122;-76
2021/12/25 10:12:01;;;;;;;2.78;0.70;;;-3.40;99.90;;;;;;5014548;28;20046;-75
2021/12/25 10:14:27;;;;;;;1.70;0.65;;;-3.30;99.90;;;;;;5017934;28;20073;-76
2021/12/25 10:16:54;;;;;;;2.30;1.00;;;-3.30;99.90;;;;;;4988893;28;20081;-76
2021/12/25 10:19:22;;;;;;;1.90;0.75;;;-3.20;99.90;;;;;;5026510;28;20042;-76
2021/12/25 10:22:01;;;;;;;2.38;0.60;;;-3.20;99.90;;;;;;4989901;28;20049;-74
2021/12/25 10:24:28;;;;;;;3.25;0.50;;;-3.20;99.90;;;;;;5022802;28;20058;-75
2021/12/25 10:27:12;;;;;;;3.53;0.55;;;-3.00;99.90;;;;;;4999338;28;20063;-76
2021/12/25 10:29:38;;;;;;;3.92;0.65;;;-3.00;99.90;;;;;;4988628;28;20077;-76
2021/12/25 10:32:19;;;;;;;3.22;0.88;;;-2.90;99.90;;;;;;5029270;28;20092;-76
2021/12/25 10:34:45;;;;;;;2.15;0.60;;;-2.90;99.90;;;;;;4988090;28;20125;-76
2021/12/25 10:37:14;;;;;;;2.92;0.80;;;-2.80;99.90;;;;;;5017072;28;20038;-77
2021/12/25 10:39:40;;;;;;;2.33;0.75;;;-2.80;99.90;;;;;;5017999;28;20041;-77
2021/12/25 10:42:17;;;;;;;2.30;0.32;;;-2.70;99.90;;;;;;5042093;28;20055;-76
2021/12/25 10:44:55;;;;;;;3.10;0.60;;;-2.60;99.90;;;;;;5059631;28;20045;-76
2021/12/25 10:47:21;;;;;;;2.67;0.45;;;-2.60;99.90;;;;;;5041231;28;20036;-75
2021/12/25 10:49:53;;;;;;;2.35;0.63;;;-2.50;99.90;;;;;;5037083;28;20049;-75
2021/12/25 10:52:21;;;;;;;2.42;0.82;;;-2.50;99.90;;;;;;5022895;28;20063;-77
2021/12/25 10:54:54;;;;;;;2.85;0.73;;;-2.50;99.90;;;;;;5049119;28;20411;-78
2021/12/25 10:57:38;;;;;;;2.58;0.60;;;-2.40;99.90;;;;;;5050377;28;20047;-77
2021/12/25 11:00:26;;;;;;;2.78;0.77;;;-2.40;99.90;;;;;;5062556;28;20535;-76
2021/12/25 11:02:59;;;;;;;3.85;0.82;;;-2.40;99.90;;;;;;5039746;28;20041;-79
2021/12/25 11:05:44;;;;;;;3.15;0.70;;;-2.30;99.90;;;;;;5052115;28;20420;-80
2021/12/25 11:08:14;;;;;;;2.67;0.82;;;-1.50;99.90;;;;;;5066511;28;20141;-78
2021/12/25 11:10:56;;;;;;;5.82;1.00;;;-2.30;99.90;;;;;;5079644;28;20157;-78
2021/12/25 11:13:24;;;;;;;1.65;0.70;;;-2.30;99.90;;;;;;5035479;28;20059;-78
2021/12/25 11:15:56;;;;;;;1.83;0.73;;;-2.10;99.90;;;;;;5046545;28;20058;-76
2021/12/25 11:18:22;;;;;;;4.63;0.80;;;-2.10;99.90;;;;;;5048251;28;20061;-77
2021/12/25 11:20:49;;;;;;;5.85;1.02;;;-2.10;99.90;;;;;;5030107;28;20052;-79
2021/12/25 11:23:15;;;;;;;4.53;0.77;;;-2.10;99.90;;;;;;5031227;28;20057;-78
2021/12/25 11:25:43;;;;;;;4.80;1.25;;;-2.10;99.90;;;;;;5030929;28;20057;-76
2021/12/25 11:28:11;;;;;;;2.17;0.60;;;-2.10;99.90;;;;;;5036277;28;20053;-76
2021/12/25 11:30:42;;;;;;;1.67;0.70;;;-2.00;99.90;;;;;;5022281;28;20120;-76
2021/12/25 11:33:07;;;;;;;4.43;0.90;;;-2.00;99.90;;;;;;5057318;28;20053;-75
2021/12/25 11:35:34;;;;;;;2.92;1.00;;;-2.00;99.90;;;;;;5061100;28;20330;-76
2021/12/25 11:38:01;;;;;;;4.45;0.85;;;-1.90;99.90;;;;;;5019087;28;20064;-76
2021/12/25 11:40:29;;;;;;;3.92;1.35;;;-1.90;99.90;;;;;;5031894;28;20049;-76
2021/12/25 11:42:59;;;;;;;1.85;0.88;;;-1.80;99.90;;;;;;5028143;28;20118;-75
2021/12/25 11:45:29;;;;;;;4.95;1.00;;;-1.80;99.90;;;;;;5037031;28;20056;-76
2021/12/25 11:47:58;;;;;;;2.75;0.98;;;-1.80;99.90;;;;;;5026304;28;20049;-76
2021/12/25 11:50:41;;;;;;;0.60;0.57;;;-1.80;99.90;;;;;;5019905;28;20164;-76
2021/12/25 11:58:52;;;;;;;4.00;1.00;;;-1.60;99.90;;;;;;5020197;28;20210;-76
2021/12/25 12:01:22;;;;;;;3.10;1.10;;;-1.60;99.90;;;;;;5013524;28;20053;-76
2021/12/25 12:04:00;;;;;;;2.75;1.02;;;-1.60;99.90;;;;;;5012402;28;20053;-77
2021/12/25 12:06:44;;;;;;;3.58;1.08;;;-1.60;99.90;;;;;;5029722;28;20505;-76
2021/12/25 12:09:30;;;;;;;2.25;0.80;;;-1.50;99.90;;;;;;5014218;28;20084;-74
2021/12/25 12:12:04;;;;;;;2.92;1.00;;;-1.50;99.90;;;;;;5028892;28;20234;-75
2021/12/25 12:14:31;;;;;;;4.13;0.80;;;-1.40;99.90;;;;;;5009589;28;20530;-74
2021/12/25 12:17:24;;;;;;;4.03;1.20;;;-1.30;99.90;;;;;;5012023;28;20076;-74
2021/12/25 12:19:52;;;;;;;2.30;1.30;;;-1.30;99.90;;;;;;5012341;28;20075;-74
2021/12/25 12:25:42;;;;;;;3.13;1.20;;;-1.40;99.90;;;;;;5017871;28;20049;-75
2021/12/25 12:28:09;;;;;;;5.03;1.10;;;-1.40;99.90;;;;;;4997812;28;20052;-76
2021/12/25 12:30:36;;;;;;;3.33;0.73;;;-1.30;99.90;;;;;;5010699;28;20049;-76
2021/12/25 12:33:22;;;;;;;0.93;0.65;;;-1.30;99.90;;;;;;5012367;28;20055;-75
2021/12/25 12:35:50;;;;;;;1.58;0.60;;;-1.30;99.90;;;;;;5008632;28;20497;-79
2021/12/25 12:41:12;;;;;;;2.22;1.10;;;-1.40;99.90;;;;;;5049773;28;20045;-77
2021/12/25 12:43:59;;;;;;;6.07;1.13;;;-1.40;99.90;;;;;;5060738;28;20048;-77
2021/12/25 12:46:47;;;;;;;8.73;1.77;;;-1.40;99.90;;;;;;5037537;28;20045;-78
2021/12/25 12:49:16;;;;;;;3.28;0.80;;;-1.50;99.90;;;;;;5020471;28;20045;-77
2021/12/25 12:51:42;;;;;;;1.92;0.90;;;-1.50;99.90;;;;;;5017737;28;20377;-76
2021/12/25 12:54:08;;;;;;;4.30;0.93;;;-1.00;99.90;;;;;;5054467;28;20104;-75
2021/12/25 12:56:36;;;;;;;2.47;0.90;;;-1.50;99.90;;;;;;5059502;28;20044;-73
2021/12/25 12:59:03;;;;;;;5.03;1.10;;;-1.60;99.90;;;;;;5036065;28;20045;-74
2021/12/25 13:01:29;;;;;;;5.10;1.00;;;-1.60;99.90;;;;;;5054680;28;20054;-74
2021/12/25 13:04:01;;;;;;;1.33;0.95;;;-1.60;99.90;;;;;;5050488;28;20059;-76
2021/12/25 13:06:28;;;;;;;4.03;1.20;;;-1.70;99.90;;;;;;5014759;28;20107;-76
2021/12/25 13:08:58;;;;;;;1.15;0.68;;;-1.60;99.90;;;;;;5032631;28;20053;-76
2021/12/25 13:11:28;;;;;;;1.25;0.70;;;-1.70;99.90;;;;;;5033709;28;20079;-75
2021/12/25 13:13:59;;;;;;;3.25;1.10;;;-1.70;99.90;;;;;;5046364;28;20040;-76
2021/12/25 13:16:33;;;;;;;2.03;0.80;;;-1.60;99.90;;;;;;5021017;28;20132;-75
2021/12/25 13:19:03;;;;;;;4.65;1.00;;;-1.70;99.90;;;;;;5028731;28;20053;-75
2021/12/25 13:21:30;;;;;;;2.72;0.85;;;-1.60;99.90;;;;;;5043454;28;20056;-74
2021/12/25 13:23:58;;;;;;;1.67;0.90;;;-1.70;99.90;;;;;;5015302;28;20079;-75
2021/12/25 13:26:39;;;;;;;3.80;1.02;;;-1.70;99.90;;;;;;5037165;28;20400;-76
2021/12/25 13:29:08;;;;;;;2.88;0.85;;;-1.70;99.90;;;;;;5044520;28;20220;-75
2021/12/25 13:31:36;;;;;;;5.50;1.05;;;-1.60;99.90;;;;;;5020114;28;20057;-76
2021/12/25 13:34:11;;;;;;;3.95;1.13;;;-1.60;99.90;;;;;;5075902;28;20040;-76
2021/12/25 13:36:39;;;;;;;5.07;1.27;;;-1.70;99.90;;;;;;5056984;28;20484;-77
2021/12/25 13:39:15;;;;;;;7.15;1.55;;;-1.70;99.90;;;;;;5024245;28;20076;-77
2021/12/25 13:41:50;;;;;;;5.50;1.10;;;-1.70;99.90;;;;;;5045606;28;20051;-77
2021/12/25 13:44:23;;;;;;;1.88;1.02;;;-1.70;99.90;;;;;;5053002;28;20049;-78
2021/12/25 13:46:59;;;;;;;3.00;1.23;;;-1.60;99.90;;;;;;5051030;28;20053;-76
2021/12/25 13:49:26;;;;;;;5.85;1.27;;;-1.80;99.90;;;;;;5025190;28;20053;-75
2021/12/25 13:51:52;;;;;;;5.75;1.25;;;-1.80;99.90;;;;;;5056108;28;20056;-76
2021/12/25 13:54:19;;;;;;;4.32;1.30;;;-1.50;99.90;;;;;;5014906;28;20045;-75
2021/12/25 13:56:49;;;;;;;2.65;0.88;;;-1.80;99.90;;;;;;5051338;28;20543;-76
2021/12/25 13:59:15;;;;;;;5.07;0.90;;;-1.80;99.90;;;;;;5034847;28;20182;-78
2021/12/25 14:01:41;;;;;;;4.10;1.23;;;-1.90;99.90;;;;;;5022364;28;20063;-76
2021/12/25 14:04:12;;;;;;;2.92;1.10;;;-1.90;99.90;;;;;;5059297;28;20049;-77
2021/12/25 14:06:38;;;;;;;4.32;1.02;;;-1.90;99.90;;;;;;5044449;28;20060;-78
2021/12/25 14:09:05;;;;;;;4.05;1.00;;;-1.90;99.90;;;;;;5048880;28;20052;-77
2021/12/25 14:11:31;;;;;;;5.53;1.10;;;-1.90;99.90;;;;;;5017166;28;20076;-79
2021/12/25 14:13:57;;;;;;;4.78;1.13;;;-2.00;99.90;;;;;;5036350;28;20141;-76
2021/12/25 14:16:24;;;;;;;4.25;1.23;;;-2.00;99.90;;;;;;5029578;28;20047;-76
2021/12/25 14:18:50;;;;;;;5.35;1.00;;;-2.00;99.90;;;;;;5015505;28;20514;-75
2021/12/25 14:21:22;;;;;;;2.10;0.98;;;-2.00;99.90;;;;;;5041022;28;20083;-78